McCabe, Montana
Current Conditions -  °F | °C
As of 3:52 PM on Thursday 18 Dec 2014 (Local Time) from KISN Reporting Station
Overcast Overcast  
Wind Chill: 21°   Ceiling: 800
Heat Index: 28°   Visibility: 10mi
Dew Point: 24°   Wind: 7mph
Humidity: 85%   Direction: 220°SW
Pressure: 29.95"   Gusts: NA
Location:  48.24°N, 104.38°W
Report Text: KISN 182252Z AUTO 22006KT 10SM OVC008 M02/M04 A2995 RMK AO2 SLP172 T10221044
Loading
Personal Weather Stations






























Interactive Weather Map New forecast layout! Learn more

10-Day Weather Forecast

Advertisements
Track Severe Weather on mobile